CheckWX is a tool to help pilots better visualize weather data.  It is not intended as a substitute for an official pre-flight weather briefing.

07:29:32 UTC

KSDL TAF
Scottsdale Airport
Scottsdale, Arizona, USA
KSDL 200520Z 2006/2106 VRB04KT P6SM SKC FM201800 18007KT P6SM SKC FM202100 22008KT P6SM SKC FM210000 24008G16KT P6SM SKC

Jun-20@
06:00 UTC

Jun-20 @ 06:00 UTC

Jun-20@
18:00 UTC

Jun-20 @ 18:00 UTC

KSDL 200520Z 2006/2106 VRB04KT P6SM SKC
Wind
  • Variable at 4 KTS
Cloud Levels
  • Clear skies

Jun-20@
18:00 UTC

Jun-20 @ 18:00 UTC

Jun-20@
21:00 UTC

Jun-20 @ 21:00 UTC

FM201800 18007KT P6SM SKC

From

From Standard forecast or significant change

Wind
  • 180° at 7 KTS
Cloud Levels
  • Clear skies

Jun-20@
21:00 UTC

Jun-20 @ 21:00 UTC

Jun-21@
00:00 UTC

Jun-21 @ 00:00 UTC

FM202100 22008KT P6SM SKC

From

From Standard forecast or significant change

Wind
  • 220° at 8 KTS
Cloud Levels
  • Clear skies

Jun-21@
00:00 UTC

Jun-21 @ 00:00 UTC

Jun-21@
06:00 UTC

Jun-21 @ 06:00 UTC

FM210000 24008G16KT P6SM SKC

From

From Standard forecast or significant change

Wind
  • 240° at 8 KTS
  • {Gusting to 16 KTS
Cloud Levels
  • Clear skies